sensor_id;sensor_type;location;lat;lon;timestamp;P1;durP1;ratioP1;P2;durP2;ratioP2
545;SDS011;259;53.304;9.816;2022-08-01T00:01:49;0.90;;;0.90;;
545;SDS011;259;53.304;9.816;2022-08-01T00:04:15;1.07;;;1.07;;
545;SDS011;259;53.304;9.816;2022-08-01T00:06:40;1.10;;;1.10;;
545;SDS011;259;53.304;9.816;2022-08-01T00:09:06;1.00;;;1.00;;
545;SDS011;259;53.304;9.816;2022-08-01T00:11:31;1.57;;;1.50;;
545;SDS011;259;53.304;9.816;2022-08-01T00:13:57;1.03;;;1.00;;
545;SDS011;259;53.304;9.816;2022-08-01T00:16:23;1.00;;;1.00;;
545;SDS011;259;53.304;9.816;2022-08-01T00:18:49;1.03;;;1.03;;
545;SDS011;259;53.304;9.816;2022-08-01T00:21:15;1.00;;;1.00;;
545;SDS011;259;53.304;9.816;2022-08-01T00:23:41;1.17;;;1.00;;
545;SDS011;259;53.304;9.816;2022-08-01T00:26:07;0.90;;;0.90;;
545;SDS011;259;53.304;9.816;2022-08-01T00:28:33;1.10;;;1.10;;
545;SDS011;259;53.304;9.816;2022-08-01T00:30:58;1.53;;;1.43;;
545;SDS011;259;53.304;9.816;2022-08-01T00:33:24;0.90;;;0.90;;
545;SDS011;259;53.304;9.816;2022-08-01T00:35:50;1.03;;;1.03;;
545;SDS011;259;53.304;9.816;2022-08-01T00:38:15;1.40;;;1.30;;
545;SDS011;259;53.304;9.816;2022-08-01T00:40:41;1.10;;;1.10;;
545;SDS011;259;53.304;9.816;2022-08-01T00:43:06;1.00;;;1.00;;
545;SDS011;259;53.304;9.816;2022-08-01T00:45:32;0.80;;;0.80;;
545;SDS011;259;53.304;9.816;2022-08-01T00:47:58;1.07;;;1.07;;
545;SDS011;259;53.304;9.816;2022-08-01T00:50:23;1.00;;;1.00;;
545;SDS011;259;53.304;9.816;2022-08-01T00:52:50;1.00;;;1.00;;
545;SDS011;259;53.304;9.816;2022-08-01T00:55:16;0.80;;;0.80;;
545;SDS011;259;53.304;9.816;2022-08-01T00:57:43;1.10;;;1.10;;
545;SDS011;259;53.304;9.816;2022-08-01T01:00:09;1.10;;;1.10;;
545;SDS011;259;53.304;9.816;2022-08-01T01:02:35;1.27;;;1.20;;
545;SDS011;259;53.304;9.816;2022-08-01T01:05:01;1.03;;;0.93;;
545;SDS011;259;53.304;9.816;2022-08-01T01:10:36;0.90;;;0.90;;
545;SDS011;259;53.304;9.816;2022-08-01T01:13:07;0.93;;;0.90;;
545;SDS011;259;53.304;9.816;2022-08-01T01:15:54;1.13;;;1.10;;
545;SDS011;259;53.304;9.816;2022-08-01T01:34:43;0.90;;;0.90;;
545;SDS011;259;53.304;9.816;2022-08-01T01:37:14;0.90;;;0.90;;
545;SDS011;259;53.304;9.816;2022-08-01T01:39:42;0.93;;;0.93;;
545;SDS011;259;53.304;9.816;2022-08-01T01:42:09;0.97;;;0.87;;
545;SDS011;259;53.304;9.816;2022-08-01T01:44:36;1.00;;;1.00;;
545;SDS011;259;53.304;9.816;2022-08-01T01:47:02;1.00;;;1.00;;
545;SDS011;259;53.304;9.816;2022-08-01T01:49:29;1.00;;;1.00;;
545;SDS011;259;53.304;9.816;2022-08-01T01:51:57;1.00;;;1.00;;
545;SDS011;259;53.304;9.816;2022-08-01T01:54:28;0.90;;;0.90;;
545;SDS011;259;53.304;9.816;2022-08-01T01:57:02;0.90;;;0.90;;
545;SDS011;259;53.304;9.816;2022-08-01T01:59:30;1.20;;;1.10;;
545;SDS011;259;53.304;9.816;2022-08-01T02:01:58;0.90;;;0.90;;
545;SDS011;259;53.304;9.816;2022-08-01T02:04:26;0.90;;;0.90;;
545;SDS011;259;53.304;9.816;2022-08-01T02:06:53;1.33;;;1.30;;
545;SDS011;259;53.304;9.816;2022-08-01T02:09:19;1.03;;;1.00;;
545;SDS011;259;53.304;9.816;2022-08-01T02:11:47;1.67;;;1.00;;
545;SDS011;259;53.304;9.816;2022-08-01T02:14:14;0.90;;;0.90;;
545;SDS011;259;53.304;9.816;2022-08-01T02:16:42;0.83;;;0.83;;
545;SDS011;259;53.304;9.816;2022-08-01T02:19:12;0.90;;;0.90;;
545;SDS011;259;53.304;9.816;2022-08-01T02:21:39;1.10;;;1.00;;
545;SDS011;259;53.304;9.816;2022-08-01T02:24:13;0.90;;;0.90;;
545;SDS011;259;53.304;9.816;2022-08-01T02:26:46;1.03;;;1.03;;
545;SDS011;259;53.304;9.816;2022-08-01T02:29:17;1.00;;;1.00;;
545;SDS011;259;53.304;9.816;2022-08-01T02:31:47;0.90;;;0.90;;
545;SDS011;259;53.304;9.816;2022-08-01T02:34:18;1.00;;;1.00;;
545;SDS011;259;53.304;9.816;2022-08-01T02:36:45;0.97;;;0.97;;
545;SDS011;259;53.304;9.816;2022-08-01T02:39:13;0.67;;;0.67;;
545;SDS011;259;53.304;9.816;2022-08-01T02:41:41;0.90;;;0.90;;
545;SDS011;259;53.304;9.816;2022-08-01T02:44:10;0.77;;;0.77;;
545;SDS011;259;53.304;9.816;2022-08-01T02:46:43;0.80;;;0.80;;
545;SDS011;259;53.304;9.816;2022-08-01T02:49:15;1.00;;;1.00;;
545;SDS011;259;53.304;9.816;2022-08-01T02:51:44;0.80;;;0.80;;
545;SDS011;259;53.304;9.816;2022-08-01T02:54:12;0.97;;;0.97;;
545;SDS011;259;53.304;9.816;2022-08-01T02:56:40;0.90;;;0.90;;
545;SDS011;259;53.304;9.816;2022-08-01T02:59:08;0.87;;;0.87;;
545;SDS011;259;53.304;9.816;2022-08-01T03:01:39;1.20;;;1.10;;
545;SDS011;259;53.304;9.816;2022-08-01T03:04:07;0.80;;;0.80;;
545;SDS011;259;53.304;9.816;2022-08-01T03:06:34;1.40;;;1.30;;
545;SDS011;259;53.304;9.816;2022-08-01T03:09:02;0.70;;;0.70;;
545;SDS011;259;53.304;9.816;2022-08-01T03:11:29;1.13;;;1.03;;
545;SDS011;259;53.304;9.816;2022-08-01T03:13:58;0.90;;;0.90;;
545;SDS011;259;53.304;9.816;2022-08-01T03:16:26;0.90;;;0.90;;
545;SDS011;259;53.304;9.816;2022-08-01T03:18:53;1.10;;;0.80;;
545;SDS011;259;53.304;9.816;2022-08-01T03:21:21;0.97;;;0.97;;
545;SDS011;259;53.304;9.816;2022-08-01T03:23:49;1.00;;;1.00;;
545;SDS011;259;53.304;9.816;2022-08-01T03:26:18;0.77;;;0.77;;
545;SDS011;259;53.304;9.816;2022-08-01T03:28:44;1.10;;;1.10;;
545;SDS011;259;53.304;9.816;2022-08-01T03:31:13;0.70;;;0.70;;
545;SDS011;259;53.304;9.816;2022-08-01T03:33:39;1.10;;;1.10;;
545;SDS011;259;53.304;9.816;2022-08-01T03:36:05;0.90;;;0.90;;
545;SDS011;259;53.304;9.816;2022-08-01T03:38:34;1.00;;;1.00;;
545;SDS011;259;53.304;9.816;2022-08-01T03:41:11;0.93;;;0.93;;
545;SDS011;259;53.304;9.816;2022-08-01T03:43:42;1.00;;;0.90;;
545;SDS011;259;53.304;9.816;2022-08-01T03:46:26;1.10;;;1.00;;
545;SDS011;259;53.304;9.816;2022-08-01T03:49:00;0.97;;;0.97;;
545;SDS011;259;53.304;9.816;2022-08-01T03:51:34;1.00;;;1.00;;
545;SDS011;259;53.304;9.816;2022-08-01T03:54:02;1.00;;;1.00;;
545;SDS011;259;53.304;9.816;2022-08-01T03:56:30;0.67;;;0.67;;
545;SDS011;259;53.304;9.816;2022-08-01T03:58:58;1.20;;;1.20;;
545;SDS011;259;53.304;9.816;2022-08-01T04:01:24;1.23;;;0.70;;
545;SDS011;259;53.304;9.816;2022-08-01T04:03:51;0.70;;;0.70;;
545;SDS011;259;53.304;9.816;2022-08-01T04:06:17;1.23;;;1.13;;
545;SDS011;259;53.304;9.816;2022-08-01T04:08:43;0.90;;;0.90;;
545;SDS011;259;53.304;9.816;2022-08-01T04:11:20;0.73;;;0.73;;
545;SDS011;259;53.304;9.816;2022-08-01T04:13:46;1.07;;;1.07;;
545;SDS011;259;53.304;9.816;2022-08-01T04:16:13;1.00;;;1.00;;
545;SDS011;259;53.304;9.816;2022-08-01T04:18:38;0.80;;;0.80;;
545;SDS011;259;53.304;9.816;2022-08-01T04:21:04;0.90;;;0.90;;
545;SDS011;259;53.304;9.816;2022-08-01T04:23:30;0.80;;;0.80;;
545;SDS011;259;53.304;9.816;2022-08-01T04:25:59;0.60;;;0.60;;
545;SDS011;259;53.304;9.816;2022-08-01T04:28:29;0.90;;;0.90;;
545;SDS011;259;53.304;9.816;2022-08-01T04:30:56;0.90;;;0.90;;
545;SDS011;259;53.304;9.816;2022-08-01T04:33:24;1.13;;;0.87;;
545;SDS011;259;53.304;9.816;2022-08-01T04:35:52;0.80;;;0.80;;
545;SDS011;259;53.304;9.816;2022-08-01T04:38:19;0.90;;;0.90;;
545;SDS011;259;53.304;9.816;2022-08-01T04:40:47;0.70;;;0.70;;
545;SDS011;259;53.304;9.816;2022-08-01T04:43:15;1.00;;;1.00;;
545;SDS011;259;53.304;9.816;2022-08-01T04:45:42;0.80;;;0.80;;
545;SDS011;259;53.304;9.816;2022-08-01T04:48:08;0.90;;;0.90;;
545;SDS011;259;53.304;9.816;2022-08-01T04:50:35;0.83;;;0.83;;
545;SDS011;259;53.304;9.816;2022-08-01T04:53:02;0.70;;;0.70;;
545;SDS011;259;53.304;9.816;2022-08-01T04:55:28;0.80;;;0.80;;
545;SDS011;259;53.304;9.816;2022-08-01T04:57:56;1.07;;;1.07;;
545;SDS011;259;53.304;9.816;2022-08-01T05:00:21;0.77;;;0.77;;
545;SDS011;259;53.304;9.816;2022-08-01T05:02:47;0.60;;;0.60;;
545;SDS011;259;53.304;9.816;2022-08-01T05:05:12;0.90;;;0.90;;
545;SDS011;259;53.304;9.816;2022-08-01T05:07:39;0.80;;;0.80;;
545;SDS011;259;53.304;9.816;2022-08-01T05:10:05;0.80;;;0.80;;
545;SDS011;259;53.304;9.816;2022-08-01T05:12:31;0.80;;;0.73;;
545;SDS011;259;53.304;9.816;2022-08-01T05:14:57;0.70;;;0.70;;
545;SDS011;259;53.304;9.816;2022-08-01T05:17:26;0.87;;;0.87;;
545;SDS011;259;53.304;9.816;2022-08-01T05:19:52;0.90;;;0.90;;
545;SDS011;259;53.304;9.816;2022-08-01T05:22:17;0.90;;;0.90;;
545;SDS011;259;53.304;9.816;2022-08-01T05:24:43;0.70;;;0.70;;
545;SDS011;259;53.304;9.816;2022-08-01T05:27:09;1.00;;;1.00;;
545;SDS011;259;53.304;9.816;2022-08-01T05:29:34;0.70;;;0.70;;
545;SDS011;259;53.304;9.816;2022-08-01T05:32:00;0.80;;;0.80;;
545;SDS011;259;53.304;9.816;2022-08-01T05:34:26;0.90;;;0.90;;
545;SDS011;259;53.304;9.816;2022-08-01T05:36:52;0.67;;;0.67;;
545;SDS011;259;53.304;9.816;2022-08-01T05:39:18;0.80;;;0.80;;
545;SDS011;259;53.304;9.816;2022-08-01T05:41:44;0.63;;;0.63;;
545;SDS011;259;53.304;9.816;2022-08-01T05:44:09;0.73;;;0.73;;
545;SDS011;259;53.304;9.816;2022-08-01T05:46:35;0.70;;;0.70;;
545;SDS011;259;53.304;9.816;2022-08-01T05:49:02;0.70;;;0.70;;
545;SDS011;259;53.304;9.816;2022-08-01T05:51:28;0.80;;;0.80;;
545;SDS011;259;53.304;9.816;2022-08-01T05:53:54;0.70;;;0.70;;
545;SDS011;259;53.304;9.816;2022-08-01T05:56:20;0.73;;;0.73;;
545;SDS011;259;53.304;9.816;2022-08-01T05:58:46;0.80;;;0.80;;
545;SDS011;259;53.304;9.816;2022-08-01T06:01:12;0.80;;;0.80;;
545;SDS011;259;53.304;9.816;2022-08-01T06:03:38;0.70;;;0.70;;
545;SDS011;259;53.304;9.816;2022-08-01T06:06:04;0.97;;;0.70;;
545;SDS011;259;53.304;9.816;2022-08-01T06:08:29;0.70;;;0.70;;
545;SDS011;259;53.304;9.816;2022-08-01T06:10:56;0.70;;;0.70;;
545;SDS011;259;53.304;9.816;2022-08-01T06:13:22;0.80;;;0.80;;
545;SDS011;259;53.304;9.816;2022-08-01T06:15:48;0.70;;;0.70;;
545;SDS011;259;53.304;9.816;2022-08-01T06:18:14;0.73;;;0.73;;
545;SDS011;259;53.304;9.816;2022-08-01T06:20:40;0.60;;;0.60;;
545;SDS011;259;53.304;9.816;2022-08-01T06:23:05;0.80;;;0.80;;
545;SDS011;259;53.304;9.816;2022-08-01T06:25:31;0.80;;;0.80;;
545;SDS011;259;53.304;9.816;2022-08-01T06:27:58;0.70;;;0.70;;
545;SDS011;259;53.304;9.816;2022-08-01T06:30:24;0.60;;;0.60;;
545;SDS011;259;53.304;9.816;2022-08-01T06:32:49;0.73;;;0.73;;
545;SDS011;259;53.304;9.816;2022-08-01T06:35:15;0.67;;;0.67;;
545;SDS011;259;53.304;9.816;2022-08-01T06:37:41;0.90;;;0.90;;
545;SDS011;259;53.304;9.816;2022-08-01T06:40:08;0.93;;;0.90;;
545;SDS011;259;53.304;9.816;2022-08-01T06:42:34;0.60;;;0.60;;
545;SDS011;259;53.304;9.816;2022-08-01T06:45:07;0.60;;;0.60;;
545;SDS011;259;53.304;9.816;2022-08-01T06:47:35;0.87;;;0.87;;
545;SDS011;259;53.304;9.816;2022-08-01T06:50:01;0.63;;;0.63;;
545;SDS011;259;53.304;9.816;2022-08-01T06:52:27;0.60;;;0.60;;
545;SDS011;259;53.304;9.816;2022-08-01T06:54:53;0.70;;;0.60;;
545;SDS011;259;53.304;9.816;2022-08-01T06:57:18;0.77;;;0.77;;
545;SDS011;259;53.304;9.816;2022-08-01T06:59:44;0.67;;;0.60;;
545;SDS011;259;53.304;9.816;2022-08-01T07:02:09;0.80;;;0.80;;
545;SDS011;259;53.304;9.816;2022-08-01T07:04:35;0.70;;;0.70;;
545;SDS011;259;53.304;9.816;2022-08-01T07:07:01;0.70;;;0.70;;
545;SDS011;259;53.304;9.816;2022-08-01T07:09:27;0.70;;;0.70;;
545;SDS011;259;53.304;9.816;2022-08-01T07:11:52;0.90;;;0.80;;
545;SDS011;259;53.304;9.816;2022-08-01T07:14:19;0.60;;;0.60;;
545;SDS011;259;53.304;9.816;2022-08-01T07:16:45;0.60;;;0.50;;
545;SDS011;259;53.304;9.816;2022-08-01T07:19:11;0.83;;;0.83;;
545;SDS011;259;53.304;9.816;2022-08-01T07:21:37;0.60;;;0.60;;
545;SDS011;259;53.304;9.816;2022-08-01T07:24:03;0.60;;;0.60;;
545;SDS011;259;53.304;9.816;2022-08-01T07:26:30;0.70;;;0.70;;
545;SDS011;259;53.304;9.816;2022-08-01T07:28:55;0.60;;;0.60;;
545;SDS011;259;53.304;9.816;2022-08-01T07:31:21;0.70;;;0.70;;
545;SDS011;259;53.304;9.816;2022-08-01T07:33:47;0.90;;;0.90;;
545;SDS011;259;53.304;9.816;2022-08-01T07:36:13;0.70;;;0.70;;
545;SDS011;259;53.304;9.816;2022-08-01T07:38:39;0.60;;;0.60;;
545;SDS011;259;53.304;9.816;2022-08-01T07:41:04;0.70;;;0.70;;
545;SDS011;259;53.304;9.816;2022-08-01T07:43:30;0.63;;;0.63;;
545;SDS011;259;53.304;9.816;2022-08-01T07:45:56;0.80;;;0.77;;
545;SDS011;259;53.304;9.816;2022-08-01T07:48:21;0.60;;;0.60;;
545;SDS011;259;53.304;9.816;2022-08-01T07:50:49;0.63;;;0.63;;
545;SDS011;259;53.304;9.816;2022-08-01T07:53:15;0.60;;;0.60;;
545;SDS011;259;53.304;9.816;2022-08-01T07:55:41;0.60;;;0.60;;
545;SDS011;259;53.304;9.816;2022-08-01T07:58:07;0.60;;;0.60;;
545;SDS011;259;53.304;9.816;2022-08-01T08:00:32;0.60;;;0.60;;
545;SDS011;259;53.304;9.816;2022-08-01T08:02:58;0.67;;;0.67;;
545;SDS011;259;53.304;9.816;2022-08-01T08:05:24;0.63;;;0.63;;
545;SDS011;259;53.304;9.816;2022-08-01T08:07:50;0.73;;;0.73;;
545;SDS011;259;53.304;9.816;2022-08-01T08:10:16;0.60;;;0.60;;
545;SDS011;259;53.304;9.816;2022-08-01T08:12:42;1.30;;;0.80;;
545;SDS011;259;53.304;9.816;2022-08-01T08:15:07;1.63;;;0.70;;
545;SDS011;259;53.304;9.816;2022-08-01T08:17:33;0.70;;;0.57;;
545;SDS011;259;53.304;9.816;2022-08-01T08:20:00;0.57;;;0.57;;
545;SDS011;259;53.304;9.816;2022-08-01T08:22:27;0.70;;;0.70;;
545;SDS011;259;53.304;9.816;2022-08-01T08:24:52;1.33;;;0.87;;
545;SDS011;259;53.304;9.816;2022-08-01T08:27:18;0.90;;;0.60;;
545;SDS011;259;53.304;9.816;2022-08-01T08:29:43;0.73;;;0.73;;
545;SDS011;259;53.304;9.816;2022-08-01T08:32:09;0.60;;;0.60;;
545;SDS011;259;53.304;9.816;2022-08-01T08:34:35;0.60;;;0.50;;
545;SDS011;259;53.304;9.816;2022-08-01T08:37:00;0.80;;;0.67;;
545;SDS011;259;53.304;9.816;2022-08-01T08:39:26;0.57;;;0.53;;
545;SDS011;259;53.304;9.816;2022-08-01T08:41:54;0.80;;;0.80;;
545;SDS011;259;53.304;9.816;2022-08-01T08:44:21;0.90;;;0.90;;
545;SDS011;259;53.304;9.816;2022-08-01T08:46:47;0.60;;;0.60;;
545;SDS011;259;53.304;9.816;2022-08-01T08:49:18;0.63;;;0.53;;
545;SDS011;259;53.304;9.816;2022-08-01T08:51:47;0.60;;;0.60;;
545;SDS011;259;53.304;9.816;2022-08-01T08:54:16;0.60;;;0.57;;
545;SDS011;259;53.304;9.816;2022-08-01T08:56:44;0.60;;;0.60;;
545;SDS011;259;53.304;9.816;2022-08-01T08:59:12;0.50;;;0.50;;
545;SDS011;259;53.304;9.816;2022-08-01T09:01:41;0.63;;;0.63;;
545;SDS011;259;53.304;9.816;2022-08-01T09:04:07;0.70;;;0.70;;
545;SDS011;259;53.304;9.816;2022-08-01T09:06:32;0.60;;;0.60;;
545;SDS011;259;53.304;9.816;2022-08-01T09:08:59;0.70;;;0.70;;
545;SDS011;259;53.304;9.816;2022-08-01T09:11:25;0.63;;;0.60;;
545;SDS011;259;53.304;9.816;2022-08-01T09:14:10;0.70;;;0.70;;
545;SDS011;259;53.304;9.816;2022-08-01T09:16:58;0.77;;;0.77;;
545;SDS011;259;53.304;9.816;2022-08-01T09:19:26;0.57;;;0.50;;
545;SDS011;259;53.304;9.816;2022-08-01T09:22:04;0.60;;;0.60;;
545;SDS011;259;53.304;9.816;2022-08-01T09:24:32;0.90;;;0.90;;
545;SDS011;259;53.304;9.816;2022-08-01T09:27:00;1.27;;;0.80;;
545;SDS011;259;53.304;9.816;2022-08-01T09:29:30;0.93;;;0.60;;
545;SDS011;259;53.304;9.816;2022-08-01T09:31:59;0.70;;;0.67;;
545;SDS011;259;53.304;9.816;2022-08-01T09:34:30;1.07;;;0.80;;
545;SDS011;259;53.304;9.816;2022-08-01T09:36:59;0.80;;;0.53;;
545;SDS011;259;53.304;9.816;2022-08-01T09:39:26;0.60;;;0.60;;
545;SDS011;259;53.304;9.816;2022-08-01T09:41:54;0.80;;;0.60;;
545;SDS011;259;53.304;9.816;2022-08-01T09:47:07;0.60;;;0.60;;
545;SDS011;259;53.304;9.816;2022-08-01T09:49:33;0.70;;;0.67;;
545;SDS011;259;53.304;9.816;2022-08-01T09:52:16;0.63;;;0.63;;
545;SDS011;259;53.304;9.816;2022-08-01T09:54:51;0.67;;;0.67;;
545;SDS011;259;53.304;9.816;2022-08-01T09:57:20;0.60;;;0.40;;
545;SDS011;259;53.304;9.816;2022-08-01T09:59:47;0.60;;;0.60;;
545;SDS011;259;53.304;9.816;2022-08-01T10:02:31;0.70;;;0.57;;
545;SDS011;259;53.304;9.816;2022-08-01T10:05:05;0.67;;;0.60;;
545;SDS011;259;53.304;9.816;2022-08-01T10:07:32;0.67;;;0.53;;
545;SDS011;259;53.304;9.816;2022-08-01T10:10:09;0.63;;;0.63;;
545;SDS011;259;53.304;9.816;2022-08-01T10:12:36;0.90;;;0.60;;
545;SDS011;259;53.304;9.816;2022-08-01T10:15:03;1.23;;;0.60;;
545;SDS011;259;53.304;9.816;2022-08-01T10:17:30;0.50;;;0.50;;
545;SDS011;259;53.304;9.816;2022-08-01T10:19:56;1.07;;;0.60;;
545;SDS011;259;53.304;9.816;2022-08-01T10:22:22;0.60;;;0.60;;
545;SDS011;259;53.304;9.816;2022-08-01T10:24:50;0.50;;;0.50;;
545;SDS011;259;53.304;9.816;2022-08-01T10:27:20;0.73;;;0.60;;
545;SDS011;259;53.304;9.816;2022-08-01T10:29:50;0.60;;;0.60;;
545;SDS011;259;53.304;9.816;2022-08-01T10:32:20;0.60;;;0.60;;
545;SDS011;259;53.304;9.816;2022-08-01T10:34:46;0.70;;;0.70;;
545;SDS011;259;53.304;9.816;2022-08-01T10:37:13;0.70;;;0.60;;
545;SDS011;259;53.304;9.816;2022-08-01T10:39:39;0.70;;;0.70;;
545;SDS011;259;53.304;9.816;2022-08-01T10:42:05;1.10;;;0.80;;
545;SDS011;259;53.304;9.816;2022-08-01T10:44:34;0.77;;;0.70;;
545;SDS011;259;53.304;9.816;2022-08-01T10:47:10;0.70;;;0.50;;
545;SDS011;259;53.304;9.816;2022-08-01T10:52:26;1.43;;;0.70;;
545;SDS011;259;53.304;9.816;2022-08-01T10:55:05;0.70;;;0.60;;
545;SDS011;259;53.304;9.816;2022-08-01T10:57:44;1.00;;;0.83;;
545;SDS011;259;53.304;9.816;2022-08-01T11:00:18;0.70;;;0.70;;
545;SDS011;259;53.304;9.816;2022-08-01T11:02:56;0.60;;;0.60;;
545;SDS011;259;53.304;9.816;2022-08-01T11:05:28;0.83;;;0.80;;
545;SDS011;259;53.304;9.816;2022-08-01T11:07:57;0.90;;;0.70;;
545;SDS011;259;53.304;9.816;2022-08-01T11:10:36;0.60;;;0.50;;
545;SDS011;259;53.304;9.816;2022-08-01T11:13:09;1.00;;;0.80;;
545;SDS011;259;53.304;9.816;2022-08-01T11:15:36;1.53;;;0.90;;
545;SDS011;259;53.304;9.816;2022-08-01T11:21:01;0.60;;;0.60;;
545;SDS011;259;53.304;9.816;2022-08-01T11:23:27;0.60;;;0.60;;
545;SDS011;259;53.304;9.816;2022-08-01T11:28:20;0.60;;;0.60;;
545;SDS011;259;53.304;9.816;2022-08-01T11:30:54;0.90;;;0.53;;
545;SDS011;259;53.304;9.816;2022-08-01T11:39:32;0.70;;;0.70;;
545;SDS011;259;53.304;9.816;2022-08-01T11:41:35;0.63;;;0.63;;
545;SDS011;259;53.304;9.816;2022-08-01T11:44:11;0.60;;;0.60;;
545;SDS011;259;53.304;9.816;2022-08-01T11:54:51;0.93;;;0.80;;
545;SDS011;259;53.304;9.816;2022-08-01T11:57:26;0.67;;;0.60;;
545;SDS011;259;53.304;9.816;2022-08-01T11:59:58;0.70;;;0.70;;
545;SDS011;259;53.304;9.816;2022-08-01T12:02:26;0.53;;;0.50;;
545;SDS011;259;53.304;9.816;2022-08-01T12:04:59;0.67;;;0.67;;
545;SDS011;259;53.304;9.816;2022-08-01T12:07:25;0.60;;;0.50;;
545;SDS011;259;53.304;9.816;2022-08-01T12:09:57;0.90;;;0.70;;
545;SDS011;259;53.304;9.816;2022-08-01T12:12:25;0.60;;;0.57;;
545;SDS011;259;53.304;9.816;2022-08-01T12:14:52;1.03;;;0.80;;
545;SDS011;259;53.304;9.816;2022-08-01T12:17:29;1.00;;;0.60;;
545;SDS011;259;53.304;9.816;2022-08-01T12:20:15;0.90;;;0.60;;
545;SDS011;259;53.304;9.816;2022-08-01T12:22:44;0.70;;;0.63;;
545;SDS011;259;53.304;9.816;2022-08-01T12:25:11;0.70;;;0.60;;
545;SDS011;259;53.304;9.816;2022-08-01T12:27:38;0.60;;;0.50;;
545;SDS011;259;53.304;9.816;2022-08-01T12:30:09;0.70;;;0.60;;
545;SDS011;259;53.304;9.816;2022-08-01T12:32:37;0.60;;;0.60;;
545;SDS011;259;53.304;9.816;2022-08-01T12:35:06;0.70;;;0.67;;
545;SDS011;259;53.304;9.816;2022-08-01T12:37:40;1.73;;;0.60;;
545;SDS011;259;53.304;9.816;2022-08-01T12:40:15;0.70;;;0.70;;
545;SDS011;259;53.304;9.816;2022-08-01T12:42:48;0.90;;;0.70;;
545;SDS011;259;53.304;9.816;2022-08-01T12:45:17;0.70;;;0.60;;
545;SDS011;259;53.304;9.816;2022-08-01T12:47:46;0.67;;;0.50;;
545;SDS011;259;53.304;9.816;2022-08-01T12:50:14;0.60;;;0.60;;
545;SDS011;259;53.304;9.816;2022-08-01T12:52:43;0.80;;;0.50;;
545;SDS011;259;53.304;9.816;2022-08-01T12:55:10;0.50;;;0.50;;
545;SDS011;259;53.304;9.816;2022-08-01T12:57:39;0.70;;;0.67;;
545;SDS011;259;53.304;9.816;2022-08-01T13:02:35;0.60;;;0.50;;
545;SDS011;259;53.304;9.816;2022-08-01T13:05:01;0.60;;;0.53;;
545;SDS011;259;53.304;9.816;2022-08-01T13:08:01;0.80;;;0.60;;
545;SDS011;259;53.304;9.816;2022-08-01T13:10:27;0.70;;;0.53;;
545;SDS011;259;53.304;9.816;2022-08-01T13:12:56;0.60;;;0.60;;
545;SDS011;259;53.304;9.816;2022-08-01T13:15:23;0.60;;;0.50;;
545;SDS011;259;53.304;9.816;2022-08-01T13:17:57;0.70;;;0.60;;
545;SDS011;259;53.304;9.816;2022-08-01T13:20:28;0.60;;;0.50;;
545;SDS011;259;53.304;9.816;2022-08-01T13:23:12;0.60;;;0.50;;
545;SDS011;259;53.304;9.816;2022-08-01T13:25:49;0.60;;;0.60;;
545;SDS011;259;53.304;9.816;2022-08-01T13:28:20;0.70;;;0.60;;
545;SDS011;259;53.304;9.816;2022-08-01T13:30:55;0.80;;;0.57;;
545;SDS011;259;53.304;9.816;2022-08-01T13:33:26;0.60;;;0.50;;
545;SDS011;259;53.304;9.816;2022-08-01T13:35:54;0.60;;;0.60;;
545;SDS011;259;53.304;9.816;2022-08-01T13:38:21;0.60;;;0.50;;
545;SDS011;259;53.304;9.816;2022-08-01T13:41:06;0.60;;;0.53;;
545;SDS011;259;53.304;9.816;2022-08-01T13:43:32;0.70;;;0.50;;
545;SDS011;259;53.304;9.816;2022-08-01T13:45:58;0.53;;;0.40;;
545;SDS011;259;53.304;9.816;2022-08-01T13:48:24;0.60;;;0.60;;
545;SDS011;259;53.304;9.816;2022-08-01T13:50:49;1.07;;;0.47;;
545;SDS011;259;53.304;9.816;2022-08-01T13:53:15;0.80;;;0.80;;
545;SDS011;259;53.304;9.816;2022-08-01T13:55:42;0.50;;;0.40;;
545;SDS011;259;53.304;9.816;2022-08-01T13:58:08;0.60;;;0.60;;
545;SDS011;259;53.304;9.816;2022-08-01T14:00:33;0.60;;;0.60;;
545;SDS011;259;53.304;9.816;2022-08-01T14:02:59;0.70;;;0.60;;
545;SDS011;259;53.304;9.816;2022-08-01T14:05:25;0.80;;;0.60;;
545;SDS011;259;53.304;9.816;2022-08-01T14:07:51;0.60;;;0.50;;
545;SDS011;259;53.304;9.816;2022-08-01T14:10:16;0.60;;;0.60;;
545;SDS011;259;53.304;9.816;2022-08-01T14:12:42;0.50;;;0.50;;
545;SDS011;259;53.304;9.816;2022-08-01T14:15:08;0.67;;;0.67;;
545;SDS011;259;53.304;9.816;2022-08-01T14:17:34;0.70;;;0.67;;
545;SDS011;259;53.304;9.816;2022-08-01T14:19:59;0.60;;;0.60;;
545;SDS011;259;53.304;9.816;2022-08-01T14:22:25;0.80;;;0.60;;
545;SDS011;259;53.304;9.816;2022-08-01T14:24:51;0.70;;;0.70;;
545;SDS011;259;53.304;9.816;2022-08-01T14:27:16;0.67;;;0.60;;
545;SDS011;259;53.304;9.816;2022-08-01T14:29:42;0.60;;;0.50;;
545;SDS011;259;53.304;9.816;2022-08-01T14:32:07;0.50;;;0.40;;
545;SDS011;259;53.304;9.816;2022-08-01T14:34:33;0.60;;;0.60;;
545;SDS011;259;53.304;9.816;2022-08-01T14:36:58;0.60;;;0.53;;
545;SDS011;259;53.304;9.816;2022-08-01T14:39:24;0.60;;;0.60;;
545;SDS011;259;53.304;9.816;2022-08-01T14:41:50;0.60;;;0.60;;
545;SDS011;259;53.304;9.816;2022-08-01T14:44:15;0.53;;;0.50;;
545;SDS011;259;53.304;9.816;2022-08-01T14:46:41;0.60;;;0.40;;
545;SDS011;259;53.304;9.816;2022-08-01T14:49:09;0.60;;;0.57;;
545;SDS011;259;53.304;9.816;2022-08-01T14:51:34;1.07;;;0.60;;
545;SDS011;259;53.304;9.816;2022-08-01T14:54:02;0.60;;;0.50;;
545;SDS011;259;53.304;9.816;2022-08-01T14:56:28;0.70;;;0.60;;
545;SDS011;259;53.304;9.816;2022-08-01T14:58:54;0.70;;;0.60;;
545;SDS011;259;53.304;9.816;2022-08-01T15:01:20;0.70;;;0.67;;
545;SDS011;259;53.304;9.816;2022-08-01T15:03:45;0.60;;;0.40;;
545;SDS011;259;53.304;9.816;2022-08-01T15:06:12;0.60;;;0.50;;
545;SDS011;259;53.304;9.816;2022-08-01T15:08:38;0.67;;;0.67;;
545;SDS011;259;53.304;9.816;2022-08-01T15:11:04;0.60;;;0.50;;
545;SDS011;259;53.304;9.816;2022-08-01T15:13:30;0.70;;;0.60;;
545;SDS011;259;53.304;9.816;2022-08-01T15:15:55;0.70;;;0.67;;
545;SDS011;259;53.304;9.816;2022-08-01T15:18:21;0.70;;;0.50;;
545;SDS011;259;53.304;9.816;2022-08-01T15:20:47;0.83;;;0.50;;
545;SDS011;259;53.304;9.816;2022-08-01T15:23:12;0.60;;;0.53;;
545;SDS011;259;53.304;9.816;2022-08-01T15:25:38;0.60;;;0.50;;
545;SDS011;259;53.304;9.816;2022-08-01T15:28:04;0.60;;;0.50;;
545;SDS011;259;53.304;9.816;2022-08-01T15:30:29;0.50;;;0.50;;
545;SDS011;259;53.304;9.816;2022-08-01T15:32:55;0.63;;;0.60;;
545;SDS011;259;53.304;9.816;2022-08-01T15:35:21;0.50;;;0.50;;
545;SDS011;259;53.304;9.816;2022-08-01T15:37:46;1.23;;;0.70;;
545;SDS011;259;53.304;9.816;2022-08-01T15:40:12;0.77;;;0.60;;
545;SDS011;259;53.304;9.816;2022-08-01T15:42:38;0.60;;;0.50;;
545;SDS011;259;53.304;9.816;2022-08-01T15:45:03;0.80;;;0.60;;
545;SDS011;259;53.304;9.816;2022-08-01T15:47:30;0.60;;;0.47;;
545;SDS011;259;53.304;9.816;2022-08-01T15:49:57;0.60;;;0.50;;
545;SDS011;259;53.304;9.816;2022-08-01T15:52:24;0.97;;;0.50;;
545;SDS011;259;53.304;9.816;2022-08-01T15:54:50;0.70;;;0.63;;
545;SDS011;259;53.304;9.816;2022-08-01T15:57:16;0.87;;;0.60;;
545;SDS011;259;53.304;9.816;2022-08-01T15:59:41;0.53;;;0.50;;
545;SDS011;259;53.304;9.816;2022-08-01T16:02:07;0.60;;;0.40;;
545;SDS011;259;53.304;9.816;2022-08-01T16:04:32;1.33;;;0.50;;
545;SDS011;259;53.304;9.816;2022-08-01T16:06:59;0.60;;;0.60;;
545;SDS011;259;53.304;9.816;2022-08-01T16:09:25;1.07;;;0.60;;
545;SDS011;259;53.304;9.816;2022-08-01T16:11:51;0.80;;;0.67;;
545;SDS011;259;53.304;9.816;2022-08-01T16:14:17;0.83;;;0.60;;
545;SDS011;259;53.304;9.816;2022-08-01T16:16:45;0.50;;;0.43;;
545;SDS011;259;53.304;9.816;2022-08-01T16:19:11;1.00;;;0.83;;
545;SDS011;259;53.304;9.816;2022-08-01T16:21:36;0.60;;;0.57;;
545;SDS011;259;53.304;9.816;2022-08-01T16:24:02;0.50;;;0.40;;
545;SDS011;259;53.304;9.816;2022-08-01T16:26:27;0.60;;;0.50;;
545;SDS011;259;53.304;9.816;2022-08-01T16:28:53;0.80;;;0.70;;
545;SDS011;259;53.304;9.816;2022-08-01T16:31:19;0.57;;;0.50;;
545;SDS011;259;53.304;9.816;2022-08-01T16:33:45;0.60;;;0.50;;
545;SDS011;259;53.304;9.816;2022-08-01T16:36:11;1.10;;;1.00;;